createdAt,value
2022-11-26T00:00:31.584Z,22.45
2022-11-26T00:05:33.200Z,20.17
2022-11-26T00:10:35.872Z,19.38
2022-11-26T00:15:37.269Z,20.67
2022-11-26T00:20:39.095Z,28.30
2022-11-26T00:25:46.988Z,24.60
2022-11-26T00:30:48.324Z,16.90
2022-11-26T00:35:52.259Z,15.80
2022-11-26T00:40:53.695Z,14.95
2022-11-26T00:45:55.118Z,13.48
2022-11-26T00:50:56.554Z,12.82
2022-11-26T00:55:57.897Z,22.08
2022-11-26T01:00:59.968Z,14.45
2022-11-26T01:06:01.453Z,13.90
2022-11-26T01:11:04.829Z,22.35
2022-11-26T01:16:16.782Z,12.60
2022-11-26T01:21:19.174Z,15.15
2022-11-26T01:26:23.026Z,18.08
2022-11-26T01:31:26.970Z,18.88
2022-11-26T01:36:29.545Z,16.67
2022-11-26T01:41:44.598Z,21.92
2022-11-26T01:46:47.166Z,21.75
2022-11-26T01:51:55.659Z,15.35
2022-11-26T01:56:59.851Z,25.77
2022-11-26T02:02:01.633Z,24.42
2022-11-26T02:07:03.462Z,23.30
2022-11-26T02:12:05.085Z,20.50
2022-11-26T02:17:26.050Z,27.70
2022-11-26T02:22:55.786Z,29.88
2022-11-26T02:28:02.823Z,26.08
2022-11-26T02:33:23.567Z,22.48
2022-11-26T02:38:30.281Z,27.67
2022-11-26T02:43:33.090Z,29.33
2022-11-26T02:48:39.147Z,26.75
2022-11-26T02:53:47.600Z,23.25
2022-11-26T02:58:52.006Z,21.10
2022-11-26T03:03:55.388Z,17.48
2022-11-26T03:08:57.162Z,20.77
2022-11-26T03:13:58.742Z,22.90
2022-11-26T03:19:00.315Z,21.05
2022-11-26T03:24:01.820Z,10.07
2022-11-26T03:29:03.390Z,17.08
2022-11-26T03:34:04.863Z,25.13
2022-11-26T03:39:06.738Z,21.55
2022-11-26T03:44:08.188Z,15.20
2022-11-26T03:49:10.470Z,16.88
2022-11-26T03:54:13.160Z,21.63
2022-11-26T03:59:14.669Z,17.05
2022-11-26T04:04:16.401Z,27.10
2022-11-26T04:09:17.906Z,17.85
2022-11-26T04:19:35.986Z,22.23
2022-11-26T04:24:37.772Z,16.98
2022-11-26T04:29:39.362Z,23.85
2022-11-26T04:40:11.716Z,17.92
2022-11-26T04:45:13.224Z,19.23
2022-11-26T04:50:14.762Z,10.63
2022-11-26T04:55:18.003Z,18.60
2022-11-26T05:00:19.971Z,22.50
2022-11-26T05:05:21.626Z,20.38
2022-11-26T05:10:23.259Z,19.25
2022-11-26T05:15:24.873Z,17.25
2022-11-26T05:20:26.449Z,22.48
2022-11-26T05:25:28.017Z,16.00
2022-11-26T05:30:29.572Z,57.63
2022-11-26T05:35:31.176Z,37.42
2022-11-26T05:40:32.754Z,33.05
2022-11-26T05:45:34.346Z,25.48
2022-11-26T05:50:35.922Z,31.95
2022-11-26T05:55:37.597Z,26.00
2022-11-26T06:00:39.169Z,23.25
2022-11-26T06:05:40.712Z,17.35
2022-11-26T06:10:43.724Z,16.95
2022-11-26T06:15:46.012Z,20.83
2022-11-26T06:20:47.588Z,17.23
2022-11-26T06:25:49.164Z,16.25
2022-11-26T06:30:51.340Z,12.38
2022-11-26T06:35:52.926Z,14.73
2022-11-26T06:41:02.887Z,12.15
2022-11-26T06:46:08.906Z,15.32
2022-11-26T06:51:17.336Z,22.58
2022-11-26T06:56:19.433Z,20.80
2022-11-26T07:01:23.841Z,15.50
2022-11-26T07:06:27.634Z,13.15
2022-11-26T07:11:28.989Z,13.85
2022-11-26T07:16:30.555Z,23.08
2022-11-26T07:21:32.027Z,30.77
2022-11-26T07:26:33.437Z,24.95
2022-11-26T07:31:36.218Z,16.88
2022-11-26T07:36:42.805Z,22.70
2022-11-26T07:41:44.164Z,23.83
2022-11-26T07:46:45.497Z,28.67
2022-11-26T07:51:46.855Z,21.80
2022-11-26T08:39:04.056Z,23.13
2022-11-26T08:44:07.535Z,21.15
2022-11-26T08:49:12.360Z,21.38
2022-11-26T08:54:14.100Z,28.90
2022-11-26T08:59:17.419Z,27.85
2022-11-26T09:04:18.920Z,31.75
2022-11-26T09:09:20.547Z,24.70
2022-11-26T09:14:27.244Z,30.25
2022-11-26T09:19:29.180Z,29.70
2022-11-26T09:24:30.813Z,25.17
2022-11-26T09:29:32.383Z,24.88
2022-11-26T09:34:33.937Z,22.02
2022-11-26T09:39:35.818Z,19.35
2022-11-26T09:44:51.953Z,20.38
2022-11-26T09:50:19.010Z,19.48
2022-11-26T09:55:27.703Z,21.88
2022-11-26T10:00:37.500Z,21.42
2022-11-26T10:05:59.416Z,25.20
2022-11-26T10:11:09.776Z,28.50
2022-11-26T10:16:19.066Z,24.17
2022-11-26T10:21:51.721Z,26.23
2022-11-26T10:26:49.785Z,23.65
2022-11-26T10:31:57.701Z,25.98
2022-11-26T10:36:59.784Z,45.75
2022-11-26T10:42:13.547Z,20.50
2022-11-26T10:47:31.676Z,25.17
2022-11-26T10:52:34.296Z,19.33
2022-11-26T10:57:43.775Z,21.83
2022-11-26T11:02:49.320Z,25.52
2022-11-26T11:07:53.919Z,26.63
2022-11-26T11:13:14.586Z,24.58
2022-11-26T11:18:22.005Z,20.52
2022-11-26T11:23:45.792Z,26.80
2022-11-26T11:28:51.663Z,20.10
2022-11-26T11:34:13.736Z,25.90
2022-11-26T11:39:30.131Z,24.58
2022-11-26T11:44:39.703Z,23.38
2022-11-26T11:50:05.653Z,20.33
2022-11-26T11:55:25.749Z,18.35
2022-11-26T12:00:58.364Z,20.77
2022-11-26T12:06:14.983Z,15.50
2022-11-26T12:11:29.881Z,16.92
2022-11-26T12:16:37.872Z,15.80
2022-11-26T12:21:46.014Z,20.05
2022-11-26T12:27:26.190Z,13.23
2022-11-26T12:32:39.862Z,19.23
2022-11-26T12:37:42.638Z,17.10
2022-11-26T12:43:13.391Z,12.57
2022-11-26T12:48:28.187Z,17.35
2022-11-26T12:53:33.236Z,14.65
2022-11-26T12:58:47.614Z,14.23
2022-11-26T13:03:59.395Z,20.75
2022-11-26T13:09:37.821Z,14.27
2022-11-26T13:14:59.472Z,13.20
2022-11-26T13:20:21.212Z,14.20
2022-11-26T13:25:51.794Z,13.18
2022-11-26T13:31:21.283Z,14.13
2022-11-26T13:36:46.212Z,13.98
2022-11-26T13:42:14.097Z,15.02
2022-11-26T13:47:39.319Z,10.00
2022-11-26T13:53:06.786Z,12.35
2022-11-26T13:58:17.742Z,14.23
2022-11-26T14:03:45.735Z,11.95
2022-11-26T14:08:50.721Z,11.52
2022-11-26T14:14:24.592Z,10.75
2022-11-26T14:19:41.183Z,28.80
2022-11-26T14:24:49.058Z,21.40
2022-11-26T14:30:27.711Z,10.35
2022-11-26T14:35:35.837Z,14.35
2022-11-26T14:40:38.366Z,14.18
2022-11-26T14:45:40.865Z,8.95
2022-11-26T14:50:43.797Z,10.77
2022-11-26T14:55:46.277Z,16.65
2022-11-26T15:01:15.987Z,13.20
2022-11-26T15:06:38.434Z,16.23
2022-11-26T15:11:45.996Z,8.73
2022-11-26T15:16:55.418Z,11.95
2022-11-26T15:21:57.322Z,11.60
2022-11-26T15:26:59.034Z,14.80
2022-11-26T15:32:01.018Z,14.27
2022-11-26T15:37:04.636Z,14.90
2022-11-26T15:42:25.470Z,13.68
2022-11-26T15:47:28.781Z,13.73
2022-11-26T15:52:32.865Z,10.45
2022-11-26T15:57:37.747Z,7.75
2022-11-26T16:02:39.166Z,11.98
2022-11-26T16:07:56.147Z,13.95
2022-11-26T16:13:15.657Z,13.90
2022-11-26T16:18:23.516Z,15.35
2022-11-26T16:23:28.744Z,11.77
2022-11-26T16:28:30.131Z,19.27
2022-11-26T16:33:31.477Z,13.52
2022-11-26T16:38:32.820Z,15.55
2022-11-26T16:43:34.158Z,13.95
2022-11-26T16:48:35.624Z,13.85
2022-11-26T16:53:38.406Z,17.80
2022-11-26T16:58:40.132Z,18.13
2022-11-26T17:03:43.980Z,19.00
2022-11-26T17:08:49.767Z,11.38
2022-11-26T17:13:53.086Z,10.70
2022-11-26T17:18:59.180Z,9.73
2022-11-26T17:24:08.465Z,19.02
2022-11-26T17:29:13.364Z,13.40
2022-11-26T17:34:14.950Z,12.15
2022-11-26T17:39:19.877Z,11.45
2022-11-26T17:44:22.387Z,12.60
2022-11-26T17:49:24.312Z,12.35
2022-11-26T17:54:26.060Z,11.68
2022-11-26T17:59:28.463Z,10.00
2022-11-26T18:04:30.213Z,13.10
2022-11-26T18:09:32.992Z,8.70
2022-11-26T18:14:35.847Z,13.40
2022-11-26T18:19:43.723Z,9.38
2022-11-26T18:24:56.377Z,10.73
2022-11-26T18:29:58.631Z,16.08
2022-11-26T18:35:01.359Z,11.05
2022-11-26T18:40:03.395Z,15.73
2022-11-26T18:45:12.065Z,15.82
2022-11-26T18:50:14.109Z,13.45
2022-11-26T18:55:15.960Z,17.25
2022-11-26T19:00:19.665Z,18.10
2022-11-26T19:05:21.550Z,15.68
2022-11-26T19:10:24.590Z,15.25
2022-11-26T19:15:26.234Z,16.70
2022-11-26T19:20:27.988Z,17.10
2022-11-26T19:25:30.627Z,17.05
2022-11-26T19:30:32.167Z,18.63
2022-11-26T19:35:33.614Z,13.65
2022-11-26T19:40:34.981Z,18.02
2022-11-26T19:45:36.347Z,19.27
2022-11-26T19:50:37.826Z,17.35
2022-11-26T19:55:39.171Z,17.65
2022-11-26T20:00:42.723Z,16.17
2022-11-26T20:05:44.651Z,23.08
2022-11-26T20:10:49.847Z,17.65
2022-11-26T20:15:51.443Z,16.73
2022-11-26T20:21:01.301Z,21.25
2022-11-26T20:26:03.223Z,28.77
2022-11-26T20:31:05.720Z,21.00
2022-11-26T20:36:08.800Z,19.00
2022-11-26T20:41:13.406Z,21.80
2022-11-26T20:46:15.227Z,27.02
2022-11-26T20:51:19.179Z,26.35
2022-11-26T20:56:21.930Z,20.67
2022-11-26T21:01:28.274Z,25.52
2022-11-26T21:06:30.637Z,23.52
2022-11-26T21:11:32.226Z,21.98
2022-11-26T21:16:34.210Z,22.55
2022-11-26T21:21:35.569Z,17.27
2022-11-26T21:26:36.946Z,23.65
2022-11-26T21:31:38.416Z,20.10
2022-11-26T21:36:40.034Z,19.25
2022-11-26T21:41:41.548Z,28.58
2022-11-26T21:46:42.932Z,31.98
2022-11-26T21:51:44.348Z,49.17
2022-11-26T21:56:45.716Z,29.92
2022-11-26T22:01:47.197Z,22.90
2022-11-26T22:06:49.117Z,17.30
2022-11-26T22:11:50.623Z,18.90
2022-11-26T22:16:52.766Z,16.05
2022-11-26T22:21:54.151Z,17.40
2022-11-26T22:26:55.743Z,15.85
2022-11-26T22:31:57.135Z,14.43
2022-11-26T22:36:58.493Z,13.77
2022-11-26T22:41:59.835Z,16.02
2022-11-26T22:47:01.172Z,13.80
2022-11-26T22:52:02.538Z,14.95
2022-11-26T22:57:03.923Z,16.38
2022-11-26T23:02:05.336Z,13.57
2022-11-26T23:07:06.782Z,12.20
2022-11-26T23:12:08.122Z,13.23
2022-11-26T23:17:09.462Z,9.90
2022-11-26T23:22:10.826Z,17.13
2022-11-26T23:27:12.182Z,17.75
2022-11-26T23:32:13.549Z,10.80
2022-11-26T23:37:14.892Z,14.52
2022-11-26T23:42:16.470Z,15.30
2022-11-26T23:47:17.816Z,11.48
2022-11-26T23:52:19.166Z,13.32
2022-11-26T23:57:20.514Z,15.15
